• Join FlightAware (Why Join?)
  • Login
  • US Flag 
06:19PM EDT


 

Airport Tracker/Info


-or-


 

Live Flight TrackerFlight Track Log ✈ OPT332 ✈ 19-Sep-2013 ✈ KMDW - CYHZ

Flight Track Log - Related Links

Times and Time Zones

All times are in EDT time to prevent confusion due to time zone crossing. See the OPT332 flight status page for this flight to view local times or setup timezone preferences in your user account.

Time Position Orientation Groundspeed Altitude Reporting Facility
EDT Latitude Longitude Course Direction KTS MPH feet Rate Location/Type
12:27PM 41.7500 -87.7167 148° Southeast 196 226 2,800  Level Chicago TRACON
12:28PM 41.7011 -87.7017 167° South 208 239 3,100 1,980 Climbing Chicago Center
12:29PM 41.6411 -87.6742 161° South 220 253 6,500 3,000 Climbing Chicago Center
12:30PM 41.5722 -87.6411 160° South 258 297 9,400 2,580 Climbing Chicago Center
12:31PM 41.5008 -87.6064 160° South 271 312 11,900 1,260 Climbing Chicago Center
12:32PM 42.0090 -86.8240 148° Southeast  Level Estimated
12:32PM 41.4103 -87.5789 167° South 337 388 12,000  Level Chicago Center
12:33PM 41.3022 -87.5611 173° South 327 376 14,400 2,340 Climbing Chicago Center
12:34PM 41.2144 -87.5386 169° South 324 373 16,900 2,040 Climbing Chicago Center
12:35PM 41.1233 -87.5136 168° South 332 382 18,700 1,620 Climbing Chicago Center
12:36PM 41.0297 -87.4886 169° South 340 391 20,300 1,920 Climbing Chicago Center
12:37PM 40.9386 -87.4633 168° South 336 387 22,700 1,920 Climbing Chicago Center
12:38PM 40.8481 -87.4322 165° South 337 388 24,300 1,680 Climbing Chicago Center
12:39PM 40.7594 -87.3742 154° Southeast 354 407 26,200 1,800 Climbing Chicago Center
12:40PM 40.6542 -87.3086 155° Southeast 351 404 28,100 1,500 Climbing Chicago Center
12:41PM 40.5625 -87.2533 155° Southeast 361 415 29,400 1,440 Climbing Chicago Center
12:42PM 40.4697 -87.1956 155° Southeast 369 425 31,100 1,680 Climbing Chicago Center
12:43PM 40.3839 -87.1414 154° Southeast 369 425 32,900 1,680 Climbing Chicago Center
12:44PM 40.3211 -87.0086 122° Southeast 369 425 34,600 1,560 Climbing Chicago Center
12:45PM 40.3208 -86.8808 90° East 351 404 36,200 1,440 Climbing Chicago Center
12:46PM 40.3208 -86.7511 90° East 355 409 37,600 1,260 Climbing Chicago Center
12:47PM 40.3200 -86.6233 90° East 352 405 38,900 1,260 Climbing Chicago Center
12:48PM 40.3203 -86.4989 90° East 344 396 40,300 900 Climbing Chicago Center
12:49PM 40.3203 -86.3753 90° East 339 390 40,800 480 Climbing Chicago Center
12:50PM 40.3194 -86.2458 90° East 352 405 41,300 480 Climbing Chicago Center
12:51PM 40.3194 -86.1147 90° East 359 413 41,800 480 Climbing Chicago Center
12:52PM 40.3172 -85.9522 91° East 368 423 42,400 480 Climbing Chicago Center
12:53PM 40.3164 -85.8442 91° East 370 426 42,800 360 Climbing Indianapolis Center
12:54PM 40.3264 -85.7108 84° East 370 426 43,200 300 Climbing Indianapolis Center
12:55PM 40.3611 -85.5803 71° East 378 435 43,500 300 Climbing Indianapolis Center
12:56PM 40.4036 -85.4225 70° East 385 443 43,900 300 Climbing Chicago Center
12:57PM 40.4383 -85.2897 71° East 386 444 44,200 240 Climbing Chicago Center
12:58PM 40.4728 -85.1553 71° East 391 450 44,500 300 Climbing Chicago Center
12:59PM 40.5064 -85.0183 72° East 393 452 44,800 240 Climbing Indianapolis Center
01:00PM 40.5422 -84.8825 71° East 398 458 45,000 60 Climbing Indianapolis Center
01:01PM 40.5778 -84.7439 71° East 400 460 45,000  Level Indianapolis Center
01:02PM 40.6128 -84.6039 72° East 402 463 45,000  Level Indianapolis Center
01:03PM 40.6558 -84.4339 71° East 406 467 45,000  Level Indianapolis Center
01:04PM 40.6908 -84.2950 72° East 402 463 45,000  Level Indianapolis Center
01:06PM 40.7244 -84.1553 72° East 400 460 45,000  Level Indianapolis Center
01:07PM 40.7583 -84.0161 72° East 399 459 45,000  Level Indianapolis Center
01:08PM 40.7925 -83.8756 72° East 402 463 45,000  Level Indianapolis Center
01:09PM 40.8267 -83.7350 72° East 401 461 45,000  Level Indianapolis Center
01:10PM 40.8608 -83.5953 72° East 400 460 45,000  Level Indianapolis Center
01:10PM 40.8822 -83.5103 72° East 402 463 45,000  Level Cleveland Center
01:11PM 40.9161 -83.3686 72° East 403 464 45,000  Level Cleveland Center
01:12PM 40.9531 -83.2289 71° East 403 464 45,000  Level Cleveland Center
01:13PM 40.9900 -83.0856 71° East 403 464 45,000  Level Cleveland Center
01:14PM 41.0267 -82.9444 71° East 403 464 45,000  Level Cleveland Center
01:15PM 41.0697 -82.7786 71° East 404 465 45,000  Level Cleveland Center
01:16PM 41.1058 -82.6361 71° East 405 466 45,000  Level Cleveland Center
01:17PM 41.1425 -82.4925 71° East 407 468 45,000  Level Cleveland Center
01:18PM 41.1783 -82.3481 72° East 408 470 45,000  Level Cleveland Center
01:19PM 41.2142 -82.2039 72° East 408 470 45,000  Level Cleveland Center
01:20PM 41.2503 -82.0589 72° East 409 471 45,000  Level Cleveland Center
01:21PM 41.2864 -81.9131 72° East 411 473 45,000  Level Cleveland Center
01:22PM 41.3211 -81.7728 72° East 410 472 45,000  Level Cleveland Center
01:24PM 41.3608 -81.6108 72° East 415 478 45,000  Level Cleveland Center
01:25PM 41.3967 -81.4631 72° East 416 479 45,000  Level Cleveland Center
01:26PM 41.4311 -81.3186 72° East 408 470 45,000  Level Cleveland Center
01:27PM 41.4667 -81.1708 72° East 414 476 45,000  Level Cleveland Center
01:28PM 41.5008 -81.0250 73° East 409 471 45,000  Level Cleveland Center
01:29PM 41.5419 -80.8517 72° East 416 479 45,000  Level Cleveland Center
01:30PM 41.5772 -80.7042 72° East 414 476 45,000  Level Cleveland Center
01:31PM 41.6122 -80.5561 72° East 413 475 45,000  Level Cleveland Center
01:32PM 41.6461 -80.4072 73° East 416 479 45,000  Level Cleveland Center
01:33PM 41.6797 -80.2583 73° East 414 476 45,000  Level Cleveland Center
01:34PM 41.7147 -80.1086 73° East 417 480 45,000  Level Cleveland Center
01:35PM 41.7483 -79.9606 73° East 415 478 45,000  Level Cleveland Center
01:36PM 41.7831 -79.8094 73° East 419 482 45,000  Level Cleveland Center
01:37PM 41.8161 -79.6594 73° East 417 480 45,000  Level Cleveland Center
01:38PM 41.8506 -79.5028 74° East 416 479 45,000  Level Cleveland Center
01:39PM 41.8839 -79.3536 73° East 418 481 45,000  Level Cleveland Center
01:40PM 41.9228 -79.1733 74° East 421 484 45,000  Level Cleveland Center
01:41PM 41.9556 -79.0244 73° East 418 481 45,000  Level Cleveland Center
01:42PM 41.9869 -78.8736 74° East 419 482 45,000  Level Cleveland Center
01:43PM 42.0197 -78.7239 74° East 419 482 45,000  Level Cleveland Center
01:44PM 42.0517 -78.5733 74° East 420 483 45,000  Level Cleveland Center
01:45PM 42.0833 -78.4225 74° East 419 482 45,000  Level Cleveland Center
01:46PM 42.1211 -78.2414 74° East 421 484 45,000  Level Cleveland Center
01:47PM 42.1522 -78.0950 74° East 414 476 45,000  Level Cleveland Center
01:48PM 42.1836 -77.9447 74° East 418 481 45,000  Level Cleveland Center
01:49PM 42.2144 -77.7933 75° East 421 484 45,000  Level Cleveland Center
01:50PM 42.2453 -77.6414 75° East 423 487 45,000  Level Cleveland Center
01:51PM 42.2817 -77.4592 75° East 424 488 45,000  Level Cleveland Center
01:52PM 42.3122 -77.3069 75° East 425 489 45,000  Level Cleveland Center
01:53PM 42.3428 -77.1544 75° East 425 489 45,000  Level Cleveland Center
01:54PM 42.3725 -77.0003 75° East 427 491 45,000  Level Cleveland Center
01:55PM 42.4036 -76.8469 75° East 427 491 45,000  Level Cleveland Center
01:57PM 42.4392 -76.6603 75° East 429 494 45,000  Level Cleveland Center
01:58PM 42.4742 -76.5086 73° East 426 490 45,000  Level Cleveland Center
01:59PM 42.4983 -76.3469 78° East 429 494 45,000  Level Cleveland Center
02:00PM 42.5283 -76.1917 75° East 429 494 45,000  Level Cleveland Center
02:01PM 42.5569 -76.0353 76° East 429 494 45,000  Level Cleveland Center
02:02PM 42.5853 -75.8772 76° East 432 497 45,000  Level Cleveland Center
02:03PM 42.6142 -75.7200 76° East 433 498 45,000  Level Cleveland Center
02:04PM 42.6492 -75.5333 76° East 428 493 45,000  Level Cleveland Center
02:05PM 42.6772 -75.3744 76° East 432 497 45,000  Level Cleveland Center
02:06PM 42.7053 -75.2164 76° East 433 498 45,000  Level Cleveland Center
02:07PM 42.7333 -75.0575 76° East 435 501 45,000  Level Cleveland Center
02:08PM 42.7594 -74.8947 78° East 430 495 45,000  Level Boston Center
02:09PM 42.7900 -74.7375 75° East 430 495 45,000  Level Boston Center
02:10PM 42.8181 -74.5772 77° East 430 495 45,000  Level Boston Center
02:11PM 42.8439 -74.4167 78° East 430 495 45,000  Level Boston Center
02:12PM 42.8714 -74.2589 77° East 430 495 45,000  Level Boston Center
02:13PM 42.8989 -74.0981 77° East 430 495 45,000  Level Boston Center
02:14PM 42.9242 -73.9400 78° East 430 495 45,000  Level Boston Center
02:15PM 42.9511 -73.7789 77° East 430 495 45,000  Level Boston Center
02:16PM 42.9758 -73.6178 78° East 430 495 45,000  Level Boston Center
02:17PM 43.0022 -73.4592 77° East 430 495 45,000  Level Boston Center
02:18PM 43.0306 -73.3150 75° East 430 495 45,000  Level Boston Center
02:19PM 43.0567 -73.1561 77° East 430 495 45,000  Level Boston Center
02:20PM 43.0806 -73.0142 77° East 430 495 45,000  Level Boston Center
02:21PM 43.1019 -72.8381 80° East 430 495 45,000  Level Boston Center
02:22PM 43.1275 -72.6733 78° East 430 495 45,000  Level Boston Center
02:23PM 43.1589 -72.4969 76° East 430 495 45,000  Level Boston Center
02:24PM 43.1819 -72.3347 79° East 430 495 45,000  Level Boston Center
02:25PM 43.2067 -72.1694 78° East 430 495 45,000  Level Boston Center
02:26PM 43.2311 -72.0069 78° East 430 495 45,000  Level Boston Center
02:27PM 43.2533 -71.8442 79° East 430 495 45,000  Level Boston Center
02:28PM 43.2772 -71.6814 79° East 430 495 45,000  Level Boston Center
02:29PM 43.2953 -71.5500 79° East 430 495 45,000  Level Boston Center
02:30PM 43.3250 -71.3756 77° East 430 495 45,000  Level Boston Center
02:31PM 43.3503 -71.2125 78° East 430 495 45,000  Level Boston Center
02:32PM 43.3778 -71.0519 77° East 430 495 45,000  Level Boston Center
02:33PM 43.4092 -70.8939 75° East 430 495 45,000  Level Boston Center
02:34PM 43.4464 -70.7386 72° East 430 495 45,000  Level Boston Center
02:35PM 43.4794 -70.5775 74° East 430 495 45,000  Level Boston Center
02:36PM 43.5142 -70.4189 73° East 430 495 45,000  Level Boston Center
02:37PM 43.5467 -70.2631 74° East 425 489 45,000  Level Boston Center
02:38PM 43.5789 -70.1014 75° East 425 489 45,000  Level Boston Center
02:39PM 43.6092 -69.9453 75° East 419 482 45,000  Level Boston Center
02:40PM 43.6431 -69.7889 73° East 419 482 45,000  Level Boston Center
02:41PM 43.6747 -69.6325 74° East 419 482 45,000  Level Boston Center
02:42PM 43.7083 -69.4758 73° East 419 482 45,000  Level Boston Center
02:43PM 43.7417 -69.3161 74° East 419 482 45,000  Level Boston Center
02:44PM 43.7706 -69.1592 76° East 419 482 45,000  Level Boston Center
02:45PM 43.8033 -68.9992 74° East 419 482 45,000  Level Boston Center
02:46PM 43.8361 -68.8419 74° East 419 482 45,000  Level Boston Center
02:47PM 43.8664 -68.6844 75° East 419 482 45,000  Level Boston Center
02:48PM 43.8989 -68.5297 74° East 419 482 45,000  Level Boston Center
02:49PM 43.9267 -68.3722 76° East 419 482 45,000  Level Boston Center
02:50PM 43.9600 -68.1967 75° East 419 482 45,000  Level Boston Center
02:51PM 43.9833 -68.0500 77° East 430 495 45,000  Level Moncton Center
02:52PM 44.0000 -67.9000 81° East 430 495 45,000  Level Moncton Center
02:53PM 44.0333 -67.7167 76° East 430 495 45,000  Level Moncton Center
02:54PM 44.0500 -67.5833 80° East 430 495 45,000  Level Moncton Center
02:55PM 44.1000 -67.4000 69° East 430 495 45,000  Level Moncton Center
02:56PM 44.1333 -67.2667 71° East 430 495 45,000  Level Moncton Center
02:57PM 44.1500 -67.0833 83° East 430 495 45,000  Level Moncton Center
02:58PM 44.1833 -66.9333 73° East 430 495 45,000  Level Moncton Center
02:59PM 44.2167 -66.7833 73° East 430 495 45,000  Level Moncton Center
03:00PM 44.2500 -66.6167 74° East 430 495 45,000 -180 Level Moncton Center
03:01PM 44.2667 -66.4500 82° East 430 495 44,700 -1,200 Descending Moncton Center
03:02PM 44.3000 -66.2667 76° East 440 506 42,600 -2,040 Descending Moncton Center
03:03PM 44.3167 -66.1333 80° East 430 495 40,700 -2,040 Descending Moncton Center
03:04PM 44.3667 -65.9333 71° East 420 483 38,600 -2,040 Descending Moncton Center
03:05PM 44.3833 -65.8000 80° East 410 472 36,700 -2,040 Descending Moncton Center
03:06PM 44.4167 -65.6667 71° East 390 449 34,600 -2,040 Descending Moncton Center
03:07PM 44.4500 -65.5167 73° East 390 449 32,700 -1,980 Descending Moncton Center
03:08PM 44.4833 -65.3500 74° East 420 483 30,700 -1,980 Descending Moncton Center
03:09PM 44.5167 -65.2000 73° East 430 495 28,800 -2,040 Descending Moncton Center
03:10PM 44.5500 -65.0333 74° East 440 506 26,700 -2,400 Descending Moncton Center
03:11PM 44.5833 -64.8667 74° East 430 495 24,000 -2,820 Descending Moncton Center
03:12PM 44.6167 -64.7000 74° East 430 495 21,100 -2,820 Descending Moncton Center
03:13PM 44.6500 -64.5333 74° East 430 495 18,400 -2,700 Descending Moncton Center
03:14PM 44.6833 -64.4000 71° East 420 483 15,700 -2,700 Descending Moncton Center
03:15PM 44.7167 -64.2333 74° East 400 460 13,000 -2,580 Descending Moncton Center
03:16PM 44.7333 -64.0833 81° East 390 449 10,600 -2,460 Descending Moncton Center
03:17PM 44.7667 -63.9500 71° East 370 426 8,100 -2,220 Descending Moncton Center
03:18PM 44.7833 -63.8333 79° East 310 357 6,200 -1,980 Descending Moncton Center
03:19PM 44.7833 -63.7167 90° East 290 334 4,200 -1,800 Descending Moncton Center
03:20PM 44.7833 -63.6167 90° East 270 311 2,600 -1,200 Descending Moncton Center
03:21PM 44.7833 -63.5333 90° East 240 276 1,900 -300 Descending Moncton Center
03:22PM 44.8000 -63.4333 77° East 180 207 2,000 -60 Climbing Moncton Center
03:23PM 44.8333 -63.4000 35° Northeast 140 161 1,800 -600 Descending Moncton Center
03:24PM 44.8500 -63.4500 295° West 120 138 900 -900 Descending Moncton Center